Time;durP1;ratioP1;P1;durP2;ratioP2;P2;SDS_P1;SDS_P2;PMS_P1;PMS_P2;Temp;Humidity;BMP_temperature;BMP_pressure;BME280_temperature;BME280_humidity;BME280_pressure;Samples;Min_cycle;Max_cycle;Signal;HPM_P1;HPM_P2
2022/11/20 00:00:56;;;;;;;13.93;6.30;;;0.90;99.90;;;;;;4996244;28;20770;-70
2022/11/20 00:03:22;;;;;;;10.60;5.57;;;0.90;99.90;;;;;;4997617;28;20033;-70
2022/11/20 00:05:48;;;;;;;11.80;6.23;;;1.00;99.90;;;;;;5003720;28;20103;-70
2022/11/20 00:08:13;;;;;;;13.37;5.20;;;1.00;99.90;;;;;;4999768;28;20298;-70
2022/11/20 00:10:40;;;;;;;10.83;5.27;;;1.00;99.90;;;;;;5000141;28;20053;-70
2022/11/20 00:13:06;;;;;;;10.77;5.10;;;1.00;99.90;;;;;;4999924;28;20038;-69
2022/11/20 00:15:32;;;;;;;15.07;6.18;;;1.00;99.90;;;;;;5003853;28;20570;-70
2022/11/20 00:17:57;;;;;;;11.95;5.40;;;1.00;99.90;;;;;;5002563;28;20049;-70
2022/11/20 00:20:23;;;;;;;12.87;6.30;;;1.00;99.90;;;;;;5001386;28;20266;-70
2022/11/20 00:22:49;;;;;;;10.67;5.00;;;1.10;99.90;;;;;;4991611;28;20109;-70
2022/11/20 00:25:15;;;;;;;11.75;6.15;;;1.00;99.90;;;;;;5001102;28;20275;-70
2022/11/20 00:27:41;;;;;;;14.38;6.57;;;1.00;99.90;;;;;;4997287;28;20167;-70
2022/11/20 00:30:07;;;;;;;12.47;6.23;;;1.10;99.90;;;;;;4993771;28;20456;-70
2022/11/20 00:32:33;;;;;;;16.58;6.45;;;1.00;99.90;;;;;;4983462;28;20061;-70
2022/11/20 00:34:58;;;;;;;14.67;5.87;;;1.10;99.90;;;;;;4999018;28;20494;-70
2022/11/20 00:37:24;;;;;;;16.97;6.37;;;1.10;99.90;;;;;;4998879;28;20037;-70
2022/11/20 00:39:49;;;;;;;13.97;6.87;;;1.10;99.90;;;;;;4998964;28;20483;-70
2022/11/20 00:42:15;;;;;;;16.43;7.07;;;1.10;99.90;;;;;;4993152;28;20125;-70
2022/11/20 00:44:41;;;;;;;14.87;6.30;;;1.10;99.90;;;;;;4998569;28;20129;-70
2022/11/20 00:47:06;;;;;;;15.97;7.63;;;1.10;99.90;;;;;;4999545;28;20380;-70
2022/11/20 00:49:32;;;;;;;18.73;7.00;;;1.10;99.90;;;;;;4999839;28;20057;-70
2022/11/20 00:51:57;;;;;;;16.50;7.07;;;1.10;99.90;;;;;;4995957;28;20038;-70
2022/11/20 00:54:23;;;;;;;13.07;6.63;;;1.10;99.90;;;;;;4983188;28;20148;-70
2022/11/20 00:56:49;;;;;;;16.60;6.37;;;1.00;99.90;;;;;;4998578;28;20164;-70
2022/11/20 00:59:14;;;;;;;14.80;6.90;;;1.00;99.90;;;;;;4999025;28;20034;-70
2022/11/20 01:01:40;;;;;;;16.67;6.70;;;1.00;99.90;;;;;;4999368;28;20315;-69
2022/11/20 01:04:05;;;;;;;13.50;6.60;;;1.00;99.90;;;;;;4999643;28;20551;-70
2022/11/20 01:06:37;;;;;;;11.30;5.77;;;1.00;99.90;;;;;;4999186;28;20607;-70
2022/11/20 01:09:09;;;;;;;13.95;5.45;;;1.00;99.90;;;;;;5000328;28;20061;-70
2022/11/20 01:11:38;;;;;;;12.27;5.85;;;1.00;99.90;;;;;;4997131;28;20495;-70
2022/11/20 01:14:05;;;;;;;11.18;5.70;;;0.90;99.90;;;;;;4996997;28;20046;-70
2022/11/20 01:16:37;;;;;;;11.73;5.53;;;0.90;99.90;;;;;;4999604;28;20041;-70
2022/11/20 01:19:05;;;;;;;10.88;5.78;;;0.90;99.90;;;;;;5002443;28;20046;-70
2022/11/20 01:21:37;;;;;;;12.15;6.13;;;0.90;99.90;;;;;;5002660;28;20145;-71
2022/11/20 01:24:04;;;;;;;16.85;7.10;;;0.90;99.90;;;;;;5001049;28;20480;-73
2022/11/20 01:26:32;;;;;;;12.10;5.63;;;0.90;99.90;;;;;;5003848;28;20454;-76
2022/11/20 01:28:59;;;;;;;12.55;6.32;;;0.90;99.90;;;;;;5003980;28;20057;-72
2022/11/20 01:31:33;;;;;;;14.13;6.82;;;0.90;99.90;;;;;;4998863;28;20496;-70
2022/11/20 01:34:02;;;;;;;15.35;7.22;;;0.90;99.90;;;;;;4994715;28;20217;-70
2022/11/20 01:36:30;;;;;;;11.38;6.43;;;1.00;99.90;;;;;;5002214;28;20046;-69
2022/11/20 01:39:02;;;;;;;14.35;6.25;;;1.00;99.90;;;;;;5002896;28;20126;-69
2022/11/20 01:44:20;;;;;;;13.25;5.75;;;1.00;99.90;;;;;;4996383;28;20038;-69
2022/11/20 01:46:59;;;;;;;12.40;5.90;;;1.10;99.90;;;;;;4997182;28;20042;-69
2022/11/20 01:49:38;;;;;;;15.07;6.07;;;1.00;99.90;;;;;;4997049;28;20100;-69
2022/11/20 01:52:17;;;;;;;12.07;6.03;;;1.10;99.90;;;;;;4996392;28;20069;-69
2022/11/20 01:54:53;;;;;;;12.80;5.53;;;1.10;99.90;;;;;;5002000;28;22406;-69
2022/11/20 01:57:20;;;;;;;12.63;6.57;;;1.10;99.90;;;;;;4983864;28;20107;-69
2022/11/20 01:59:55;;;;;;;13.00;6.50;;;1.10;99.90;;;;;;5003585;28;20139;-69
2022/11/20 02:02:21;;;;;;;14.85;6.47;;;1.00;99.90;;;;;;5000130;28;20403;-69
2022/11/20 02:04:51;;;;;;;12.25;5.90;;;1.10;99.90;;;;;;4997407;28;20045;-69
2022/11/20 02:07:18;;;;;;;11.82;5.57;;;1.10;99.90;;;;;;4997843;28;20657;-69
2022/11/20 02:09:44;;;;;;;;;;;1.10;99.90;;;;;;5000417;28;20342;-69
2022/11/20 02:13:42;;;;;;;12.65;5.82;;;1.10;99.90;;;;;;5003868;28;20290;-69
2022/11/20 02:14:56;;;;;;;12.00;5.22;;;1.10;99.90;;;;;;5003288;28;20072;-69
2022/11/20 02:17:22;;;;;;;9.00;4.95;;;1.10;99.90;;;;;;4999982;28;20133;-69
2022/11/20 02:19:48;;;;;;;12.32;5.47;;;1.10;99.90;;;;;;5000814;28;20196;-69
2022/11/20 02:22:28;;;;;;;9.33;4.90;;;1.20;99.90;;;;;;4999717;28;20049;-69
2022/11/20 02:24:54;;;;;;;10.90;6.05;;;1.20;99.90;;;;;;4999996;28;20566;-69
2022/11/20 02:27:20;;;;;;;11.73;5.50;;;1.20;99.90;;;;;;5004435;28;20278;-69
2022/11/20 02:29:57;;;;;;;12.65;6.03;;;1.20;99.90;;;;;;5001986;28;20124;-69
2022/11/20 02:32:22;;;;;;;12.50;5.78;;;1.20;99.90;;;;;;5003528;28;20072;-69
2022/11/20 02:34:48;;;;;;;15.37;7.43;;;1.20;99.90;;;;;;5006203;28;20042;-69
2022/11/20 02:37:14;;;;;;;9.80;5.00;;;1.20;99.90;;;;;;5003542;28;20038;-69
2022/11/20 02:39:41;;;;;;;12.20;5.68;;;1.20;99.90;;;;;;5005422;28;20472;-69
2022/11/20 02:42:07;;;;;;;14.23;5.80;;;1.30;99.90;;;;;;4998714;28;20520;-69
2022/11/20 02:44:32;;;;;;;12.63;5.97;;;1.30;99.90;;;;;;5004410;28;20053;-69
2022/11/20 02:46:59;;;;;;;12.83;5.67;;;1.30;99.90;;;;;;5006207;28;20034;-69
2022/11/20 02:49:25;;;;;;;12.50;5.93;;;1.20;99.90;;;;;;5005097;28;20061;-69
2022/11/20 02:51:50;;;;;;;9.85;5.18;;;1.30;99.90;;;;;;5006205;28;20121;-69
2022/11/20 02:54:16;;;;;;;10.17;5.67;;;1.20;99.90;;;;;;5004034;28;20128;-70
2022/11/20 02:56:43;;;;;;;11.80;6.37;;;1.30;99.90;;;;;;5003815;28;20081;-70
2022/11/20 02:59:09;;;;;;;;;;;1.30;99.90;;;;;;5006663;28;20042;-69
2022/11/20 03:01:34;;;;;;;12.82;5.78;;;1.30;99.90;;;;;;5006369;28;20237;-69
2022/11/20 03:04:00;;;;;;;10.37;5.63;;;1.30;99.90;;;;;;5002218;28;20068;-69
2022/11/20 03:06:25;;;;;;;10.60;5.37;;;1.20;99.90;;;;;;5005853;28;20212;-69
2022/11/20 03:08:51;;;;;;;13.17;5.83;;;1.20;99.90;;;;;;5001651;28;20038;-69
2022/11/20 03:11:17;;;;;;;13.07;5.10;;;1.30;99.90;;;;;;4987740;28;20069;-70
2022/11/20 03:13:42;;;;;;;14.03;5.93;;;1.20;99.90;;;;;;5002134;28;20215;-69
2022/11/20 03:16:14;;;;;;;13.13;6.27;;;1.20;99.90;;;;;;5008807;28;20080;-69
2022/11/20 03:18:41;;;;;;;12.10;5.38;;;1.20;99.90;;;;;;5008233;28;20137;-70
2022/11/20 03:21:07;;;;;;;;;;;1.20;99.90;;;;;;5005538;28;20064;-69
2022/11/20 03:23:33;;;;;;;11.40;5.05;;;1.20;99.90;;;;;;5001451;28;19998;-69
2022/11/20 03:26:15;;;;;;;12.48;6.45;;;1.20;99.90;;;;;;5002808;28;20125;-70
2022/11/20 03:28:42;;;;;;;11.43;5.05;;;1.30;99.90;;;;;;5004486;28;20054;-70
2022/11/20 03:31:13;;;;;;;10.57;5.93;;;1.30;99.90;;;;;;5001592;28;20121;-70
2022/11/20 03:33:40;;;;;;;10.77;5.13;;;1.30;99.90;;;;;;5003887;28;20057;-70
2022/11/20 03:36:09;;;;;;;16.42;6.50;;;1.30;99.90;;;;;;5008338;28;20442;-70
2022/11/20 03:38:35;;;;;;;14.25;5.18;;;1.30;99.90;;;;;;5006263;28;20057;-71
2022/11/20 03:41:07;;;;;;;12.00;5.07;;;1.30;99.90;;;;;;5000633;28;20053;-69
2022/11/20 03:43:33;;;;;;;13.73;6.07;;;1.30;99.90;;;;;;5004164;28;20420;-69
2022/11/20 03:45:59;;;;;;;13.18;6.13;;;1.30;99.90;;;;;;5003309;28;20137;-69
2022/11/20 03:48:25;;;;;;;11.37;5.53;;;1.40;99.90;;;;;;5005660;28;20125;-69
2022/11/20 03:50:52;;;;;;;14.03;5.47;;;1.40;99.90;;;;;;5007648;28;20362;-69
2022/11/20 03:53:18;;;;;;;9.25;4.80;;;1.40;99.90;;;;;;4999766;28;20037;-69
2022/11/20 03:55:44;;;;;;;11.40;5.70;;;1.40;99.90;;;;;;4982538;28;20050;-70
2022/11/20 03:58:10;;;;;;;9.30;5.00;;;1.40;99.90;;;;;;5005331;28;20053;-69
2022/11/20 04:00:36;;;;;;;10.47;5.10;;;1.40;99.90;;;;;;5000712;28;20057;-69
2022/11/20 04:03:02;;;;;;;13.40;5.50;;;1.40;99.90;;;;;;5003508;28;20760;-69
2022/11/20 04:05:28;;;;;;;10.70;4.97;;;1.40;99.90;;;;;;5005715;28;20169;-69
2022/11/20 04:07:53;;;;;;;9.00;4.33;;;1.40;99.90;;;;;;5002533;28;20531;-69
2022/11/20 04:10:19;;;;;;;10.20;5.60;;;1.40;99.90;;;;;;5002542;28;20128;-69
2022/11/20 04:12:45;;;;;;;11.17;5.33;;;1.50;99.90;;;;;;5000745;28;20131;-70
2022/11/20 04:15:10;;;;;;;13.23;5.17;;;1.50;99.90;;;;;;5007359;28;20049;-69
2022/11/20 04:17:36;;;;;;;11.50;5.63;;;1.40;99.90;;;;;;5004576;28;20045;-69
2022/11/20 04:20:03;;;;;;;13.23;5.70;;;1.50;99.90;;;;;;5002713;28;20048;-70
2022/11/20 04:22:28;;;;;;;10.75;5.53;;;1.50;99.90;;;;;;5028130;23;20050;-67
2022/11/20 04:24:54;;;;;;;11.97;6.00;;;1.40;99.90;;;;;;5032170;28;20167;-67
2022/11/20 04:27:20;;;;;;;10.67;5.30;;;1.40;99.90;;;;;;5043546;28;20053;-67
2022/11/20 04:29:46;;;;;;;12.05;5.03;;;1.40;99.90;;;;;;5039076;28;20068;-67
2022/11/20 04:32:11;;;;;;;12.10;5.00;;;1.40;99.90;;;;;;5039303;28;20072;-67
2022/11/20 04:34:37;;;;;;;9.40;4.77;;;1.40;99.90;;;;;;5034937;28;20449;-67
2022/11/20 04:37:03;;;;;;;10.47;5.03;;;1.40;99.90;;;;;;5039530;28;20037;-67
2022/11/20 04:39:29;;;;;;;12.67;5.00;;;1.40;99.90;;;;;;5039649;28;20080;-67
2022/11/20 04:44:39;;;;;;;9.13;5.13;;;1.30;99.90;;;;;;5034787;28;20049;-67
2022/11/20 04:47:04;;;;;;;10.23;5.07;;;1.30;99.90;;;;;;5037055;28;20044;-67
2022/11/20 04:49:31;;;;;;;10.00;4.90;;;1.30;99.90;;;;;;5034684;28;20035;-67
2022/11/20 04:51:57;;;;;;;;;;;1.30;99.90;;;;;;5038381;28;20056;-67
2022/11/20 04:54:22;;;;;;;10.02;4.88;;;1.30;99.90;;;;;;5033145;28;19924;-67
2022/11/20 04:56:48;;;;;;;10.77;4.83;;;1.30;99.90;;;;;;5038795;28;20057;-67
2022/11/20 04:59:14;;;;;;;11.20;5.23;;;1.30;99.90;;;;;;5037308;28;20037;-67
2022/11/20 05:01:39;;;;;;;10.67;4.97;;;1.30;99.90;;;;;;5037785;28;20348;-66
2022/11/20 05:04:05;;;;;;;11.00;5.13;;;1.20;99.90;;;;;;5040157;28;20181;-66
2022/11/20 05:06:32;;;;;;;14.18;5.78;;;1.20;99.90;;;;;;5030927;28;20061;-67
2022/11/20 05:08:58;;;;;;;9.63;5.00;;;1.20;99.90;;;;;;5039217;28;20092;-67
2022/11/20 05:11:24;;;;;;;11.75;5.85;;;1.20;99.90;;;;;;5039010;28;20052;-66
2022/11/20 05:13:51;;;;;;;10.25;5.45;;;1.20;99.90;;;;;;5030974;28;20049;-66
2022/11/20 05:16:22;;;;;;;11.95;5.18;;;1.20;99.90;;;;;;5038224;28;20494;-67
2022/11/20 05:18:48;;;;;;;13.45;5.90;;;1.20;99.90;;;;;;5029362;28;20359;-67
2022/11/20 05:21:14;;;;;;;10.23;5.68;;;1.20;99.90;;;;;;5041618;28;20052;-66
2022/11/20 05:23:40;;;;;;;10.40;5.30;;;1.20;99.90;;;;;;5028187;28;20048;-66
2022/11/20 05:26:08;;;;;;;9.80;5.25;;;1.20;99.90;;;;;;5038805;28;20041;-67
2022/11/20 05:28:34;;;;;;;10.82;5.35;;;1.10;99.90;;;;;;5037688;28;20098;-66
2022/11/20 05:31:08;;;;;;;10.85;5.43;;;1.10;99.90;;;;;;5037177;28;20041;-66
2022/11/20 05:33:35;;;;;;;10.98;5.22;;;1.10;99.90;;;;;;5040519;28;20079;-68
2022/11/20 05:36:04;;;;;;;12.38;5.78;;;1.10;99.90;;;;;;5038584;28;20037;-67
2022/11/20 05:38:30;;;;;;;11.32;5.15;;;1.10;99.90;;;;;;5035251;28;20458;-67
2022/11/20 05:41:03;;;;;;;11.73;6.07;;;1.10;99.90;;;;;;5039346;28;20120;-67
2022/11/20 05:43:32;;;;;;;16.20;6.38;;;1.10;99.90;;;;;;5033519;28;20459;-67
2022/11/20 05:45:58;;;;;;;10.48;5.07;;;1.10;99.90;;;;;;5039984;28;20106;-67
2022/11/20 05:48:23;;;;;;;9.33;5.20;;;1.10;99.90;;;;;;5037224;28;20449;-67
2022/11/20 05:50:49;;;;;;;9.73;4.70;;;1.10;99.90;;;;;;5032285;28;20039;-67
2022/11/20 05:53:15;;;;;;;9.90;5.37;;;1.10;99.90;;;;;;5017390;28;20283;-66
2022/11/20 05:55:40;;;;;;;12.57;5.87;;;1.10;99.90;;;;;;5038061;28;20037;-67
2022/11/20 05:58:06;;;;;;;12.10;4.90;;;1.10;99.90;;;;;;5036451;28;20448;-67
2022/11/20 06:00:31;;;;;;;10.53;5.00;;;1.10;99.90;;;;;;5033256;28;20099;-67
2022/11/20 06:02:57;;;;;;;10.93;4.67;;;1.10;99.90;;;;;;5038102;28;20052;-67
2022/11/20 06:05:22;;;;;;;9.53;5.03;;;1.20;99.90;;;;;;5033103;28;20461;-67
2022/11/20 06:07:48;;;;;;;13.20;6.00;;;1.20;99.90;;;;;;5030422;28;20041;-67
2022/11/20 06:10:13;;;;;;;11.63;5.87;;;1.20;99.90;;;;;;5034069;28;20179;-67
2022/11/20 06:12:39;;;;;;;8.77;4.80;;;1.20;99.90;;;;;;5035983;28;20044;-67
2022/11/20 06:15:05;;;;;;;10.13;5.07;;;1.20;99.90;;;;;;5038652;28;20051;-66
2022/11/20 06:17:31;;;;;;;8.07;4.40;;;1.20;99.90;;;;;;5036621;28;20064;-69
2022/11/20 06:19:57;;;;;;;11.57;5.30;;;1.20;99.90;;;;;;5037890;28;20049;-67
2022/11/20 06:22:22;;;;;;;11.73;5.80;;;1.20;99.90;;;;;;5039609;28;20045;-66
2022/11/20 06:24:48;;;;;;;9.70;5.20;;;1.20;99.90;;;;;;5040032;28;20104;-66
2022/11/20 06:27:14;;;;;;;9.67;5.03;;;1.20;99.90;;;;;;5038265;28;20045;-67
2022/11/20 06:29:39;;;;;;;9.97;4.60;;;1.20;99.90;;;;;;5037863;28;20041;-67
2022/11/20 06:32:05;;;;;;;8.43;4.90;;;1.20;99.90;;;;;;5034864;28;20141;-66
2022/11/20 06:34:30;;;;;;;10.10;4.90;;;1.20;99.90;;;;;;5042845;28;20140;-67
2022/11/20 06:36:56;;;;;;;9.83;4.63;;;1.20;99.90;;;;;;5034155;28;20053;-67
2022/11/20 06:39:22;;;;;;;12.17;5.20;;;1.20;99.90;;;;;;5036608;28;20064;-67
2022/11/20 06:41:47;;;;;;;10.97;5.10;;;1.20;99.90;;;;;;5038119;28;20375;-66
2022/11/20 06:44:13;;;;;;;10.93;5.50;;;1.20;99.90;;;;;;5038275;28;20284;-67
2022/11/20 06:46:38;;;;;;;8.73;4.97;;;1.20;99.90;;;;;;5038129;28;20053;-66
2022/11/20 06:49:04;;;;;;;10.13;5.90;;;1.10;99.90;;;;;;5043200;28;20048;-67
2022/11/20 06:51:30;;;;;;;10.60;5.23;;;1.10;99.90;;;;;;5035745;28;20037;-66
2022/11/20 06:53:55;;;;;;;9.73;5.10;;;1.10;99.90;;;;;;5039875;28;20063;-67
2022/11/20 06:56:21;;;;;;;11.17;5.03;;;1.10;99.90;;;;;;5045618;28;20033;-67
2022/11/20 06:58:47;;;;;;;11.33;5.30;;;1.10;99.90;;;;;;5043111;28;20045;-66
2022/11/20 07:01:14;;;;;;;8.27;4.27;;;1.00;99.90;;;;;;5041776;28;20041;-67
2022/11/20 07:03:40;;;;;;;11.55;5.35;;;1.00;99.90;;;;;;5041230;28;20076;-66
2022/11/20 07:06:06;;;;;;;10.48;5.18;;;1.00;99.90;;;;;;5035770;28;20483;-67
2022/11/20 07:08:33;;;;;;;8.95;4.93;;;1.00;99.90;;;;;;5034683;28;20045;-67
2022/11/20 07:11:00;;;;;;;;;;;1.00;99.90;;;;;;5039623;28;20066;-67
2022/11/20 07:13:26;;;;;;;8.38;4.28;;;0.90;99.90;;;;;;5038705;28;19936;-67
2022/11/20 07:15:52;;;;;;;10.52;4.82;;;0.90;99.90;;;;;;5037724;28;20407;-66
2022/11/20 07:18:18;;;;;;;13.10;6.10;;;0.90;99.90;;;;;;5038855;28;20029;-67
2022/11/20 07:20:43;;;;;;;12.77;5.80;;;0.90;99.90;;;;;;5031284;28;20053;-67
2022/11/20 07:23:09;;;;;;;10.03;5.00;;;0.90;99.90;;;;;;5036314;28;20447;-67
2022/11/20 07:25:35;;;;;;;11.20;5.37;;;0.90;99.90;;;;;;5034038;28;20232;-67
2022/11/20 07:28:01;;;;;;;11.00;4.78;;;0.90;99.90;;;;;;5043209;28;20119;-66
2022/11/20 07:30:28;;;;;;;10.30;5.37;;;0.90;99.90;;;;;;5039134;28;20127;-67
2022/11/20 07:32:55;;;;;;;9.98;4.78;;;0.90;99.90;;;;;;5035728;28;20818;-67
2022/11/20 07:35:21;;;;;;;11.38;5.05;;;1.00;99.90;;;;;;5034389;28;20037;-66
2022/11/20 07:37:48;;;;;;;10.57;5.35;;;1.00;99.90;;;;;;5036567;28;20327;-66
2022/11/20 07:40:14;;;;;;;;;;;1.00;99.90;;;;;;5034658;28;20052;-67
2022/11/20 07:42:54;;;;;;;9.65;4.63;;;1.00;99.90;;;;;;5038196;28;19917;-67
2022/11/20 07:45:21;;;;;;;9.88;4.70;;;1.00;99.90;;;;;;5041583;28;20037;-67
2022/11/20 07:47:48;;;;;;;9.07;4.63;;;1.00;99.90;;;;;;5037524;28;20037;-67
2022/11/20 07:50:13;;;;;;;13.77;5.38;;;1.10;99.90;;;;;;5038735;28;20041;-67
2022/11/20 07:52:40;;;;;;;13.50;5.30;;;1.10;99.90;;;;;;5040440;28;20514;-66
2022/11/20 07:55:07;;;;;;;9.65;5.03;;;1.10;99.90;;;;;;5039204;28;20736;-67
2022/11/20 07:57:32;;;;;;;11.75;5.15;;;1.10;99.90;;;;;;5033867;28;20063;-67
2022/11/20 07:59:58;;;;;;;11.30;5.13;;;1.10;99.90;;;;;;5037635;28;20037;-67
2022/11/20 08:02:24;;;;;;;11.33;4.67;;;1.00;99.90;;;;;;5041560;28;20047;-67
2022/11/20 08:04:49;;;;;;;9.77;5.23;;;1.10;99.90;;;;;;5018572;28;20160;-67
2022/11/20 08:07:15;;;;;;;11.47;5.13;;;1.10;99.90;;;;;;5040097;28;20399;-67
2022/11/20 08:09:41;;;;;;;12.90;5.37;;;1.10;99.90;;;;;;5033390;28;20095;-66
2022/11/20 08:14:50;;;;;;;13.50;5.10;;;1.10;99.90;;;;;;5038849;28;20032;-67
2022/11/20 08:17:16;;;;;;;10.03;5.43;;;1.10;99.90;;;;;;5038194;28;20098;-66
2022/11/20 08:19:42;;;;;;;9.47;4.47;;;1.10;99.90;;;;;;5035071;28;20072;-68
2022/11/20 08:22:07;;;;;;;10.40;4.83;;;1.10;99.90;;;;;;5036326;28;20519;-66
2022/11/20 08:24:33;;;;;;;11.03;5.40;;;1.10;99.90;;;;;;5035419;28;20041;-67
2022/11/20 08:26:59;;;;;;;10.53;5.20;;;1.10;99.90;;;;;;5044162;28;20179;-67
2022/11/20 08:29:26;;;;;;;10.40;5.00;;;1.10;99.90;;;;;;5030434;28;20167;-67
2022/11/20 08:31:52;;;;;;;13.88;5.82;;;1.10;99.90;;;;;;5033979;28;20447;-66
2022/11/20 08:34:17;;;;;;;13.07;5.33;;;1.10;99.90;;;;;;5040543;28;20115;-67
2022/11/20 08:36:43;;;;;;;12.50;5.63;;;1.20;99.90;;;;;;5031042;28;20049;-68
2022/11/20 08:39:13;;;;;;;9.10;4.77;;;1.20;99.90;;;;;;5042050;28;20036;-66
2022/11/20 08:41:39;;;;;;;10.07;4.57;;;1.20;99.90;;;;;;5039831;28;20080;-67
2022/11/20 08:44:07;;;;;;;9.57;5.63;;;1.20;99.90;;;;;;5043075;28;20083;-66
2022/11/20 08:46:33;;;;;;;11.10;4.85;;;1.30;99.90;;;;;;5033595;28;20049;-67
2022/11/20 08:48:59;;;;;;;12.80;5.07;;;1.30;99.90;;;;;;5034642;28;20029;-66
2022/11/20 08:51:25;;;;;;;9.32;4.68;;;1.30;99.90;;;;;;5035319;28;20090;-66
2022/11/20 08:53:51;;;;;;;7.33;4.20;;;1.40;99.90;;;;;;5036686;28;20045;-67
2022/11/20 08:56:17;;;;;;;10.80;4.33;;;1.40;99.90;;;;;;5035424;28;20445;-67
2022/11/20 08:58:43;;;;;;;8.50;4.18;;;1.40;99.90;;;;;;5033294;28;20114;-66
2022/11/20 09:01:09;;;;;;;7.40;4.27;;;1.40;99.90;;;;;;5032327;28;20037;-67
2022/11/20 09:03:34;;;;;;;9.98;4.70;;;1.50;99.90;;;;;;5041515;28;20391;-67
2022/11/20 09:06:02;;;;;;;7.13;4.03;;;1.50;99.90;;;;;;5036106;28;20067;-67
2022/11/20 09:08:28;;;;;;;9.30;4.15;;;1.50;99.90;;;;;;5035891;28;20319;-68
2022/11/20 09:10:55;;;;;;;7.77;3.80;;;1.60;99.90;;;;;;5036373;28;20223;-67
2022/11/20 09:13:21;;;;;;;;;;;1.60;99.90;;;;;;5038709;28;20539;-67
2022/11/20 09:15:56;;;;;;;9.27;4.43;;;1.70;99.90;;;;;;5033755;28;19932;-67
2022/11/20 09:18:22;;;;;;;10.25;4.25;;;1.70;99.90;;;;;;5040887;28;20372;-67
2022/11/20 09:20:48;;;;;;;9.60;4.53;;;1.70;99.90;;;;;;5039126;28;20129;-67
2022/11/20 09:23:17;;;;;;;10.33;4.50;;;1.80;99.90;;;;;;5037356;28;20130;-67
2022/11/20 09:25:43;;;;;;;13.43;5.22;;;1.80;99.90;;;;;;5034677;28;20037;-67
2022/11/20 09:28:09;;;;;;;7.90;4.78;;;1.80;99.90;;;;;;5031410;28;20072;-68
2022/11/20 09:30:35;;;;;;;9.83;4.73;;;1.90;99.90;;;;;;5035516;28;20108;-67
2022/11/20 09:33:01;;;;;;;9.68;4.50;;;1.90;99.90;;;;;;5034792;28;20038;-67
2022/11/20 09:35:26;;;;;;;10.77;4.70;;;1.90;99.90;;;;;;5031326;28;20038;-69
2022/11/20 09:37:52;;;;;;;10.33;4.93;;;2.00;99.90;;;;;;5035026;28;20037;-68
2022/11/20 09:40:23;;;;;;;10.67;5.17;;;2.00;99.90;;;;;;5037182;28;20523;-67
2022/11/20 09:43:14;;;;;;;9.80;4.85;;;2.00;99.90;;;;;;5032973;28;20041;-67
2022/11/20 09:46:01;;;;;;;9.88;5.05;;;2.10;99.90;;;;;;5045124;28;20140;-67
2022/11/20 09:48:38;;;;;;;9.85;4.47;;;2.00;99.90;;;;;;5039986;28;20037;-67
2022/11/20 09:51:27;;;;;;;10.18;5.07;;;2.10;99.90;;;;;;5044517;28;20550;-69
2022/11/20 09:54:21;;;;;;;11.70;5.15;;;2.10;99.90;;;;;;4998733;28;20045;-66
2022/11/20 09:57:02;;;;;;;11.45;5.28;;;2.20;99.90;;;;;;5029784;28;20060;-69
2022/11/20 09:59:41;;;;;;;8.38;4.53;;;2.20;99.90;;;;;;5038265;28;20041;-67
2022/11/20 10:02:15;;;;;;;15.57;6.55;;;2.30;99.90;;;;;;5038618;28;20334;-68
2022/11/20 10:04:45;;;;;;;12.50;6.35;;;2.30;99.90;;;;;;5037123;28;20359;-67
2022/11/20 10:07:32;;;;;;;8.95;5.13;;;2.40;99.90;;;;;;5045526;28;20045;-66
2022/11/20 10:09:58;;;;;;;10.35;5.10;;;2.50;99.90;;;;;;5041854;28;20135;-66
2022/11/20 10:12:28;;;;;;;8.63;4.47;;;2.50;99.90;;;;;;5035583;28;20565;-68
2022/11/20 10:15:26;;;;;;;12.48;5.55;;;2.50;99.90;;;;;;5018887;28;20037;-69
2022/11/20 10:18:01;;;;;;;;;;;2.60;99.90;;;;;;5038611;28;20421;-67
2022/11/20 10:20:40;;;;;;;10.52;4.45;;;2.70;99.90;;;;;;5031600;28;20007;-67
2022/11/20 10:23:18;;;;;;;10.50;5.13;;;2.80;99.90;;;;;;5077965;22;20046;-69
2022/11/20 10:26:02;;;;;;;8.50;4.47;;;2.80;99.90;;;;;;4985767;28;20496;-70
2022/11/20 10:28:33;;;;;;;10.48;4.90;;;2.80;99.90;;;;;;4965852;28;20074;-69
2022/11/20 10:31:10;;;;;;;10.45;5.25;;;2.90;99.90;;;;;;4982312;28;20412;-70
2022/11/20 10:33:45;;;;;;;9.10;4.88;;;3.00;99.90;;;;;;4965782;28;20042;-70
2022/11/20 10:36:20;;;;;;;11.05;4.82;;;3.10;99.90;;;;;;4979751;28;20089;-70
2022/11/20 10:39:00;;;;;;;7.97;4.53;;;3.20;99.90;;;;;;4959755;28;20129;-70
2022/11/20 10:41:34;;;;;;;12.95;5.32;;;3.20;99.90;;;;;;4982327;28;20459;-70
2022/11/20 10:44:11;;;;;;;12.02;5.22;;;3.30;99.90;;;;;;4959988;28;20039;-70
2022/11/20 10:46:42;;;;;;;10.52;4.82;;;3.40;99.90;;;;;;4959429;28;20444;-70
2022/11/20 10:49:18;;;;;;;11.60;5.10;;;3.50;99.90;;;;;;4971391;28;20373;-71
2022/11/20 10:51:44;;;;;;;11.20;4.80;;;3.60;99.90;;;;;;4980517;28;20043;-70
2022/11/20 10:54:24;;;;;;;9.53;5.00;;;3.70;99.90;;;;;;4964377;28;20043;-70
2022/11/20 10:56:52;;;;;;;10.75;4.68;;;3.70;99.90;;;;;;4968461;28;20053;-71
2022/11/20 10:59:27;;;;;;;9.40;4.68;;;3.80;99.90;;;;;;4972585;28;20046;-71
2022/11/20 11:01:52;;;;;;;12.23;4.80;;;3.70;99.90;;;;;;4981907;28;20101;-70
2022/11/20 11:04:37;;;;;;;7.87;3.60;;;3.80;99.90;;;;;;4983120;28;20495;-70
2022/11/20 11:07:13;;;;;;;9.15;4.45;;;3.80;99.90;;;;;;4977839;28;20078;-71
2022/11/20 11:09:47;;;;;;;11.27;4.70;;;3.80;99.90;;;;;;4962092;28;20143;-70
2022/11/20 11:12:13;;;;;;;10.10;4.35;;;3.80;99.90;;;;;;4963608;28;20104;-70
2022/11/20 11:14:47;;;;;;;7.43;4.40;;;3.90;99.90;;;;;;4982134;28;20467;-80
2022/11/20 11:17:30;;;;;;;8.20;4.05;;;4.00;99.90;;;;;;4962210;28;20315;-70
2022/11/20 11:20:14;;;;;;;7.20;3.97;;;4.10;99.90;;;;;;4959912;28;20054;-70
2022/11/20 11:22:55;;;;;;;7.00;3.95;;;4.10;99.90;;;;;;4963608;28;20737;-70
2022/11/20 11:25:34;;;;;;;9.05;3.75;;;4.20;99.90;;;;;;4964606;28;20074;-70
2022/11/20 11:28:25;;;;;;;8.75;4.18;;;4.20;99.90;;;;;;4971197;28;20073;-70
2022/11/20 11:30:51;;;;;;;5.47;3.25;;;4.20;99.90;;;;;;4966831;28;20509;-70
2022/11/20 11:33:23;;;;;;;6.82;3.60;;;4.20;99.90;;;;;;4956446;28;20128;-70
2022/11/20 11:35:57;;;;;;;7.88;3.58;;;4.20;99.90;;;;;;4951790;28;20093;-70
2022/11/20 11:38:32;;;;;;;6.95;3.33;;;4.30;99.90;;;;;;4981007;28;20129;-70
2022/11/20 11:40:58;;;;;;;8.57;3.38;;;4.30;99.90;;;;;;4961253;28;20360;-70
2022/11/20 11:46:20;;;;;;;7.53;3.60;;;4.30;99.90;;;;;;4951433;28;20148;-70
2022/11/20 11:49:15;;;;;;;8.30;4.30;;;4.30;99.90;;;;;;4975634;28;20468;-70
2022/11/20 11:52:13;;;;;;;8.27;4.13;;;4.30;99.90;;;;;;4958588;28;20038;-70
2022/11/20 11:55:01;;;;;;;7.03;3.60;;;4.30;99.90;;;;;;4962389;28;20050;-70
2022/11/20 11:57:37;;;;;;;;;;;4.30;99.90;;;;;;4944699;28;20133;-70
2022/11/20 12:00:09;;;;;;;5.43;2.92;;;4.30;99.90;;;;;;4963141;28;20347;-70
2022/11/20 12:02:37;;;;;;;5.80;3.13;;;4.20;99.90;;;;;;4978154;28;20057;-70
2022/11/20 12:05:24;;;;;;;7.25;3.13;;;4.20;99.90;;;;;;4977516;28;20540;-70
2022/11/20 12:07:53;;;;;;;6.93;3.40;;;4.20;99.90;;;;;;4963746;28;20468;-71
2022/11/20 12:10:40;;;;;;;4.25;2.30;;;4.30;99.90;;;;;;4974045;28;20158;-70
2022/11/20 12:13:36;;;;;;;6.25;3.00;;;4.30;99.90;;;;;;4961875;28;20074;-70
2022/11/20 12:16:03;;;;;;;5.45;3.25;;;4.30;99.90;;;;;;4977138;28;20089;-70
2022/11/20 12:18:30;;;;;;;10.88;4.05;;;4.20;99.90;;;;;;4984632;28;20142;-70
2022/11/20 12:21:01;;;;;;;;;;;4.30;99.90;;;;;;4972573;28;20133;-70
2022/11/20 12:23:43;;;;;;;6.60;3.08;;;4.20;99.90;;;;;;4977830;28;20334;-70
2022/11/20 12:26:22;;;;;;;7.07;2.95;;;4.20;99.90;;;;;;4981038;28;20034;-70
2022/11/20 12:29:16;;;;;;;7.03;3.08;;;4.20;99.90;;;;;;4949922;28;20030;-70
2022/11/20 12:32:06;;;;;;;5.63;3.13;;;4.30;99.90;;;;;;4974060;28;20046;-70
2022/11/20 12:34:53;;;;;;;4.90;3.00;;;4.30;99.90;;;;;;4981467;28;20456;-70
2022/11/20 12:37:33;;;;;;;6.18;3.13;;;4.40;99.90;;;;;;4976519;28;20042;-70
2022/11/20 12:40:21;;;;;;;6.57;3.75;;;4.40;99.90;;;;;;4980132;28;20571;-70
2022/11/20 12:46:08;;;;;;;8.80;3.35;;;4.40;99.90;;;;;;4965786;28;20209;-71
2022/11/20 12:48:44;;;;;;;7.03;3.05;;;4.30;99.90;;;;;;4965518;28;20388;-70
2022/11/20 12:51:34;;;;;;;5.18;2.60;;;4.30;99.90;;;;;;4980868;28;20050;-71
2022/11/20 12:54:38;;;;;;;6.55;3.13;;;4.30;99.90;;;;;;4958878;28;20045;-70
2022/11/20 12:57:27;;;;;;;5.60;2.95;;;4.20;99.90;;;;;;4976286;28;20132;-70
2022/11/20 12:59:52;;;;;;;7.13;3.05;;;4.20;99.90;;;;;;4962957;28;20043;-70
2022/11/20 13:02:27;;;;;;;7.33;3.13;;;4.20;99.90;;;;;;4956524;28;20061;-70
2022/11/20 13:05:03;;;;;;;4.93;2.80;;;4.20;99.90;;;;;;4979568;28;20058;-70
2022/11/20 13:07:31;;;;;;;6.60;2.67;;;4.10;99.90;;;;;;4964454;28;20416;-70
2022/11/20 13:09:58;;;;;;;4.90;2.63;;;4.10;99.90;;;;;;4962288;28;20096;-70
2022/11/20 13:12:43;;;;;;;6.93;3.00;;;4.10;99.90;;;;;;4972295;28;20385;-70
2022/11/20 13:15:45;;;;;;;6.32;3.00;;;4.20;99.90;;;;;;4966064;28;20140;-70
2022/11/20 13:18:12;;;;;;;6.07;2.67;;;4.10;99.90;;;;;;4966229;28;20469;-70
2022/11/20 13:20:43;;;;;;;5.28;3.05;;;4.20;99.90;;;;;;4973233;28;20255;-70